Time;durP1;ratioP1;P1;durP2;ratioP2;P2;SDS_P1;SDS_P2;PMS_P1;PMS_P2;Temp;Humidity;BMP_temperature;BMP_pressure;BME280_temperature;BME280_humidity;BME280_pressure;Samples;Min_cycle;Max_cycle;Signal;HPM_P1;HPM_P2
2022/03/04 00:02:01;;;;;;;23.70;14.25;;;;;;;1.24;66.45;101968.09;4993320;28;20169;-79
2022/03/04 00:04:29;;;;;;;26.35;15.25;;;;;;;1.02;66.55;101934.31;4996632;28;20034;-78
2022/03/04 00:06:54;;;;;;;23.83;14.80;;;;;;;1.21;66.25;101965.56;4996635;28;20034;-79
2022/03/04 00:09:20;;;;;;;25.85;14.82;;;;;;;0.95;66.51;101940.28;4996572;28;20073;-78
2022/03/04 00:11:48;;;;;;;24.08;14.77;;;;;;;0.86;66.63;101934.38;4996521;28;20076;-78
2022/03/04 00:14:13;;;;;;;26.80;15.68;;;;;;;1.06;66.39;101967.34;4996558;28;20122;-79
2022/03/04 00:16:39;;;;;;;23.42;14.68;;;;;;;1.20;66.35;101987.63;4996579;28;20113;-78
2022/03/04 00:19:08;;;;;;;24.83;15.35;;;;;;;1.13;66.51;101973.25;4996431;28;20030;-79
2022/03/04 00:21:34;;;;;;;27.67;15.60;;;;;;;1.18;66.06;101985.94;4994699;28;20042;-78
2022/03/04 00:24:00;;;;;;;24.98;15.55;;;;;;;1.12;66.53;101989.38;4996281;28;20476;-78
2022/03/04 00:26:26;;;;;;;24.23;15.05;;;;;;;0.92;66.69;101960.66;4996451;28;20029;-78
2022/03/04 00:28:51;;;;;;;26.42;15.13;;;;;;;1.05;66.84;101996.19;4996415;28;20066;-84
2022/03/04 00:31:16;;;;;;;26.00;15.70;;;;;;;1.03;67.08;101989.41;4996336;28;20034;-79
2022/03/04 00:33:42;;;;;;;25.33;15.40;;;;;;;0.99;67.10;101987.75;4996371;28;20034;-78
2022/03/04 00:36:07;;;;;;;27.15;15.85;;;;;;;0.94;66.93;101997.09;4996179;28;20589;-85
2022/03/04 00:38:32;;;;;;;25.38;15.57;;;;;;;0.90;67.47;102001.34;4996008;28;20040;-78
2022/03/04 00:40:58;;;;;;;29.55;16.45;;;;;;;0.82;67.73;102003.91;4996423;28;20048;-84
2022/03/04 00:43:24;;;;;;;26.98;15.75;;;;;;;0.67;68.39;101993.78;4996159;28;20015;-84
2022/03/04 00:45:51;;;;;;;27.15;15.80;;;;;;;0.62;68.60;101998.06;4995806;28;20069;-84
2022/03/04 00:48:16;;;;;;;29.45;16.02;;;;;;;0.48;68.99;101990.44;4996046;28;20033;-82
2022/03/04 00:50:42;;;;;;;27.45;15.43;;;;;;;0.49;68.77;101996.38;4995998;28;20031;-77
2022/03/04 00:53:07;;;;;;;27.00;15.45;;;;;;;0.42;69.18;102000.66;4995786;28;20038;-85
2022/03/04 00:55:36;;;;;;;26.52;16.02;;;;;;;0.26;69.71;101997.28;4996064;28;20034;-78
2022/03/04 00:58:01;;;;;;;25.38;15.68;;;;;;;0.24;70.07;102003.22;4995766;28;20046;-78
2022/03/04 01:00:26;;;;;;;26.58;16.15;;;;;;;-0.01;71.05;101977.00;4995654;28;20523;-85
2022/03/04 01:02:52;;;;;;;27.73;16.45;;;;;;;-0.13;70.88;101956.69;4995848;28;20089;-84
2022/03/04 01:05:17;;;;;;;26.20;16.35;;;;;;;-0.07;70.94;101982.94;4995784;28;20511;-86
2022/03/04 01:07:43;;;;;;;26.05;15.35;;;;;;;-0.15;71.11;101977.00;4995675;28;20038;-78
2022/03/04 01:10:09;;;;;;;30.30;16.52;;;;;;;-0.16;71.55;101980.41;4994080;28;20030;-78
2022/03/04 01:12:34;;;;;;;30.10;15.93;;;;;;;-0.05;71.28;102013.41;4995102;28;20115;-78
2022/03/04 01:14:59;;;;;;;26.08;15.20;;;;;;;-0.10;71.35;102002.38;4994881;28;20069;-85
2022/03/04 01:17:25;;;;;;;27.15;16.08;;;;;;;-0.20;71.61;102005.78;4995702;28;20026;-78
2022/03/04 01:19:50;;;;;;;28.42;16.42;;;;;;;-0.40;71.98;101970.22;4995592;28;20030;-84
2022/03/04 01:22:15;;;;;;;25.60;15.73;;;;;;;-0.35;72.04;101986.31;4995391;28;20030;-79
2022/03/04 01:24:40;;;;;;;29.38;16.23;;;;;;;-0.42;72.29;101980.38;4995388;28;20113;-78
2022/03/04 01:27:06;;;;;;;28.83;16.33;;;;;;;-0.40;72.08;101999.00;4995213;28;20038;-78
2022/03/04 01:29:31;;;;;;;28.95;16.30;;;;;;;-0.57;72.53;101984.63;4995269;28;20121;-79
2022/03/04 01:31:56;;;;;;;25.98;15.70;;;;;;;-0.56;72.77;101994.75;5009931;28;20153;-78
2022/03/04 01:34:22;;;;;;;24.95;14.85;;;;;;;-0.73;72.80;101978.66;4995263;28;20104;-78
2022/03/04 01:36:47;;;;;;;28.00;16.35;;;;;;;-0.62;73.01;101997.28;4995078;28;20534;-78
2022/03/04 01:39:12;;;;;;;27.67;15.80;;;;;;;-0.71;72.87;101993.03;4995283;28;20034;-79
2022/03/04 01:41:38;;;;;;;26.83;15.10;;;;;;;-1.17;73.29;101937.16;4993266;28;20073;-78
2022/03/04 01:44:03;;;;;;;28.77;16.13;;;;;;;-1.01;73.47;101962.53;4994958;28;20041;-77
2022/03/04 01:46:30;;;;;;;28.00;15.10;;;;;;;-0.93;74.55;101999.75;4995359;28;20045;-78
2022/03/04 01:48:56;;;;;;;26.92;16.77;;;;;;;-1.01;74.74;101987.88;4995020;28;20050;-78
2022/03/04 01:51:21;;;;;;;28.38;15.80;;;;;;;-1.77;74.61;101866.81;4994789;28;20133;-78
2022/03/04 01:53:47;;;;;;;26.15;14.82;;;;;;;-1.46;75.00;101938.72;4994463;28;20026;-78
2022/03/04 01:56:12;;;;;;;26.70;15.57;;;;;;;-1.19;75.49;102001.31;4994683;28;20080;-79
2022/03/04 01:58:37;;;;;;;27.27;16.33;;;;;;;-1.26;75.89;102003.00;4994664;28;20042;-78
2022/03/04 02:01:04;;;;;;;25.98;15.70;;;;;;;-1.29;76.56;101999.59;5009151;28;20038;-78
2022/03/04 02:03:30;;;;;;;29.10;17.65;;;;;;;-1.38;76.94;102000.38;5009401;28;20040;-79
2022/03/04 02:05:55;;;;;;;29.00;17.45;;;;;;;-1.26;76.98;102010.59;4994601;28;20034;-78
2022/03/04 02:08:20;;;;;;;30.13;16.65;;;;;;;-1.22;76.38;101994.56;4994277;28;20037;-78
2022/03/04 02:10:46;;;;;;;28.05;16.05;;;;;;;-1.16;76.67;101998.81;4994305;28;20399;-78
2022/03/04 02:13:11;;;;;;;28.25;16.08;;;;;;;-1.03;76.30;102003.09;4994587;28;20034;-78
2022/03/04 02:15:37;;;;;;;28.05;16.35;;;;;;;-0.94;75.72;101998.06;4994488;28;20590;-78
2022/03/04 02:18:20;;;;;;;28.88;15.88;;;;;;;-0.92;75.11;101977.75;4994434;28;20030;-78
2022/03/04 02:20:48;;;;;;;31.88;17.05;;;;;;;-0.88;75.25;101980.31;4994585;28;20031;-79
2022/03/04 02:23:15;;;;;;;29.42;17.27;;;;;;;-0.76;75.17;101989.66;4994072;28;20037;-79
2022/03/04 02:25:43;;;;;;;27.73;17.17;;;;;;;-0.87;75.15;101976.09;4994472;28;20101;-78
2022/03/04 02:28:09;;;;;;;27.70;16.85;;;;;;;-0.74;75.00;101993.03;4994104;28;20554;-78
2022/03/04 02:30:36;;;;;;;30.92;17.35;;;;;;;-0.95;75.19;101960.88;4994371;28;20023;-78
2022/03/04 02:33:04;;;;;;;26.83;16.15;;;;;;;-0.99;75.17;101954.06;4994087;28;20038;-77
2022/03/04 02:35:30;;;;;;;30.67;17.88;;;;;;;-0.84;75.53;101995.53;4994110;28;20054;-78
2022/03/04 02:37:56;;;;;;;30.85;17.17;;;;;;;-0.90;75.39;101989.59;4993891;28;20022;-78
2022/03/04 02:40:22;;;;;;;31.45;17.15;;;;;;;-0.89;75.58;101993.81;5008511;28;20042;-78
2022/03/04 02:42:47;;;;;;;28.77;17.02;;;;;;;-0.86;75.65;101980.31;4994118;28;20555;-78
2022/03/04 02:45:12;;;;;;;32.30;17.75;;;;;;;-0.88;75.77;101985.41;4994100;28;20030;-78
2022/03/04 02:47:38;;;;;;;29.25;17.40;;;;;;;-1.11;75.87;101945.59;4994026;28;20022;-78
2022/03/04 02:50:04;;;;;;;27.58;16.48;;;;;;;-0.88;75.96;101979.47;4993830;28;20408;-81
2022/03/04 02:52:29;;;;;;;29.30;17.02;;;;;;;-1.00;75.79;101966.75;4993424;28;20038;-79
2022/03/04 02:54:54;;;;;;;31.67;17.38;;;;;;;-1.14;76.08;101941.38;4993651;28;20022;-78
2022/03/04 02:57:20;;;;;;;29.27;17.35;;;;;;;-1.20;76.07;101936.28;4993756;28;20492;-79
2022/03/04 02:59:45;;;;;;;31.55;17.63;;;;;;;-0.95;75.79;101988.75;4993689;28;20373;-80
2022/03/04 03:02:10;;;;;;;31.70;17.42;;;;;;;-1.07;76.29;101963.38;4993762;28;20105;-79
2022/03/04 03:04:36;;;;;;;29.98;18.13;;;;;;;-0.94;76.29;101982.00;4993414;28;20113;-79
2022/03/04 03:07:01;;;;;;;30.40;17.48;;;;;;;-1.19;76.34;101940.50;4993495;28;20031;-78
2022/03/04 03:09:26;;;;;;;29.17;17.27;;;;;;;-1.10;76.18;101962.50;4993365;28;20034;-79
2022/03/04 03:11:52;;;;;;;30.55;17.23;;;;;;;-1.07;76.21;101975.19;5007811;28;20041;-79
2022/03/04 03:14:17;;;;;;;30.23;17.95;;;;;;;-1.01;76.53;101986.19;4993467;28;20034;-79
2022/03/04 03:16:42;;;;;;;28.92;17.63;;;;;;;-1.03;76.60;101976.88;4993710;28;20026;-79
2022/03/04 03:19:08;;;;;;;31.90;17.85;;;;;;;-1.05;76.48;101983.66;4991613;28;20048;-79
2022/03/04 03:21:33;;;;;;;29.35;17.00;;;;;;;-1.05;76.70;101986.19;4993299;28;20080;-81
2022/03/04 03:23:59;;;;;;;30.73;17.33;;;;;;;-1.20;76.53;101956.53;4993111;28;20022;-80
2022/03/04 03:26:24;;;;;;;27.80;17.27;;;;;;;-1.20;76.91;101961.63;4993199;28;20045;-79
2022/03/04 03:28:49;;;;;;;32.47;18.08;;;;;;;-1.23;76.86;101954.84;4993393;28;20018;-79
2022/03/04 03:31:15;;;;;;;32.17;18.20;;;;;;;-1.12;76.84;101975.16;4993430;28;20022;-79
2022/03/04 03:33:43;;;;;;;29.00;17.67;;;;;;;-1.06;76.82;101987.88;4993335;28;20030;-77
2022/03/04 03:36:08;;;;;;;30.42;17.13;;;;;;;-1.04;76.66;101987.88;4993191;28;20537;-78
2022/03/04 03:38:34;;;;;;;32.38;18.42;;;;;;;-1.40;76.80;101936.19;4999200;28;20149;-78
2022/03/04 03:40:59;;;;;;;32.50;17.42;;;;;;;-1.07;76.85;101990.41;4999473;28;20087;-78
2022/03/04 03:43:25;;;;;;;29.80;18.30;;;;;;;-1.07;76.88;101988.72;4999877;28;20105;-78
2022/03/04 03:45:50;;;;;;;34.88;18.55;;;;;;;-1.09;76.78;101982.78;4999567;28;20045;-78
2022/03/04 03:48:15;;;;;;;29.40;17.90;;;;;;;-1.04;76.77;101985.34;4999505;28;20022;-78
2022/03/04 03:50:43;;;;;;;33.95;18.58;;;;;;;-1.06;76.78;101982.81;4999624;28;20057;-78
2022/03/04 03:53:09;;;;;;;32.85;18.95;;;;;;;-1.14;76.59;101964.19;4999584;28;20476;-80
2022/03/04 03:55:35;;;;;;;33.25;18.85;;;;;;;-1.07;76.48;101967.59;4999162;28;20033;-79
2022/03/04 03:58:00;;;;;;;31.17;18.40;;;;;;;-1.03;76.18;101976.88;4999422;28;20487;-79
2022/03/04 04:00:26;;;;;;;34.17;18.90;;;;;;;-1.25;76.46;101932.91;4999700;28;20030;-78
2022/03/04 04:02:52;;;;;;;32.65;19.17;;;;;;;-0.92;76.40;101992.97;4999465;28;20018;-78
2022/03/04 04:05:17;;;;;;;34.55;18.95;;;;;;;-1.07;76.62;101968.44;4999504;28;20491;-80
2022/03/04 04:07:42;;;;;;;31.50;18.55;;;;;;;-1.16;76.36;101956.56;4999487;28;20023;-79
2022/03/04 04:10:08;;;;;;;33.47;18.95;;;;;;;-1.07;76.52;101967.59;4999105;28;20036;-78
2022/03/04 04:12:34;;;;;;;34.42;18.80;;;;;;;-1.17;76.39;101962.50;5014051;28;20088;-79
2022/03/04 04:14:59;;;;;;;32.17;18.73;;;;;;;-0.90;76.41;102004.81;4998014;28;20030;-79
2022/03/04 04:17:25;;;;;;;33.70;19.15;;;;;;;-1.16;76.21;101961.66;4999533;28;20026;-79
2022/03/04 04:19:50;;;;;;;31.58;19.30;;;;;;;-0.95;76.48;102003.13;4999383;28;20101;-80
2022/03/04 04:22:16;;;;;;;33.25;19.27;;;;;;;-0.88;76.41;102010.75;4999152;28;20435;-80
2022/03/04 04:24:41;;;;;;;31.42;18.70;;;;;;;-0.87;76.13;102012.44;4999285;28;20069;-78
2022/03/04 04:27:06;;;;;;;36.25;19.05;;;;;;;-1.01;76.34;101978.56;4999094;28;20019;-79
2022/03/04 04:29:32;;;;;;;34.40;18.52;;;;;;;-0.93;76.26;101989.59;4999009;28;20085;-80
2022/03/04 04:31:57;;;;;;;36.08;19.58;;;;;;;-0.88;76.24;101999.78;4999317;28;20038;-80
2022/03/04 04:34:22;;;;;;;37.20;20.15;;;;;;;-0.87;76.09;102004.84;4999297;28;20545;-78
2022/03/04 04:36:48;;;;;;;32.13;19.20;;;;;;;-1.04;76.22;101987.88;4999276;28;20030;-78
2022/03/04 04:39:13;;;;;;;31.42;18.35;;;;;;;-0.90;76.17;102017.47;4999323;28;20477;-80
2022/03/04 04:41:39;;;;;;;33.15;19.50;;;;;;;-0.89;76.50;102019.19;4999423;28;20101;-79
2022/03/04 04:44:04;;;;;;;34.60;19.38;;;;;;;-0.87;76.38;102021.75;4998990;28;20041;-79
2022/03/04 04:46:29;;;;;;;33.45;19.52;;;;;;;-0.89;76.30;102011.56;4999202;28;20030;-79
2022/03/04 04:48:55;;;;;;;32.67;19.00;;;;;;;-0.90;76.55;102016.66;4996570;28;20019;-79
2022/03/04 04:51:20;;;;;;;36.03;20.88;;;;;;;-0.87;76.62;102014.13;4995998;28;20396;-79
2022/03/04 04:53:46;;;;;;;35.17;19.55;;;;;;;-0.87;76.54;102012.44;4996021;28;20026;-78
2022/03/04 04:56:11;;;;;;;36.08;19.80;;;;;;;-0.90;76.66;102011.56;4995712;28;20053;-79
2022/03/04 04:58:36;;;;;;;37.53;20.67;;;;;;;-1.02;76.88;102001.41;4995410;28;20047;-79
2022/03/04 05:01:02;;;;;;;35.80;20.42;;;;;;;-0.97;76.91;102008.19;4995723;28;20026;-79
2022/03/04 05:03:28;;;;;;;35.97;20.05;;;;;;;-1.02;76.68;102001.41;4996023;28;20026;-77
2022/03/04 05:05:55;;;;;;;35.33;20.00;;;;;;;-1.20;77.30;101984.41;4995975;28;20015;-80
2022/03/04 05:08:20;;;;;;;37.10;20.80;;;;;;;-1.16;77.13;101999.66;4995850;28;20022;-80
2022/03/04 05:10:46;;;;;;;34.47;19.67;;;;;;;-1.27;77.71;101977.66;4995704;28;20022;-79
2022/03/04 05:13:13;;;;;;;35.17;20.00;;;;;;;-1.29;77.43;101981.84;4995462;28;20026;-81
2022/03/04 05:15:39;;;;;;;34.97;20.65;;;;;;;-1.18;77.85;102013.16;4995594;28;20476;-78
2022/03/04 05:18:04;;;;;;;34.35;19.65;;;;;;;-1.27;77.93;102001.31;4995712;28;20026;-78
2022/03/04 05:20:30;;;;;;;36.35;20.52;;;;;;;-1.39;78.12;101995.31;4994660;28;20042;-78
2022/03/04 05:22:55;;;;;;;36.28;20.38;;;;;;;-1.33;78.23;102013.94;4995405;28;20473;-79
2022/03/04 05:25:21;;;;;;;35.22;20.52;;;;;;;-1.35;78.51;102012.25;4995413;28;20038;-79
2022/03/04 05:27:46;;;;;;;40.28;20.77;;;;;;;-1.42;78.95;102007.97;4995326;28;20026;-79
2022/03/04 05:30:12;;;;;;;36.85;20.35;;;;;;;-1.50;78.73;102001.19;4995086;28;20023;-80
2022/03/04 05:32:38;;;;;;;36.17;20.95;;;;;;;-1.48;78.84;102011.31;4995181;28;20038;-78
2022/03/04 05:35:04;;;;;;;35.90;19.83;;;;;;;-1.90;79.04;101941.84;4993915;28;20034;-79
2022/03/04 05:37:30;;;;;;;35.83;20.92;;;;;;;-1.56;79.04;101998.63;4995068;28;20432;-78
2022/03/04 05:39:55;;;;;;;36.70;20.48;;;;;;;-1.57;79.48;101998.63;4995003;28;20113;-80
2022/03/04 05:42:21;;;;;;;35.83;20.80;;;;;;;-1.46;79.33;102024.84;4994973;28;20058;-78
2022/03/04 05:44:46;;;;;;;39.63;21.20;;;;;;;-1.70;79.56;101985.00;4994928;28;20076;-80
2022/03/04 05:47:11;;;;;;;38.40;21.95;;;;;;;-1.80;79.18;101975.66;4994952;28;20472;-79
2022/03/04 05:49:38;;;;;;;40.60;21.73;;;;;;;-1.51;79.35;102037.47;4994960;28;20084;-79
2022/03/04 05:52:04;;;;;;;38.35;21.08;;;;;;;-1.54;79.31;102032.41;4994951;28;20030;-80
2022/03/04 05:54:29;;;;;;;35.47;20.75;;;;;;;-1.48;79.46;102041.72;4994889;28;20026;-80
2022/03/04 05:56:55;;;;;;;37.38;21.50;;;;;;;-1.77;79.96;102006.06;4993185;28;20050;-80
2022/03/04 05:59:21;;;;;;;39.63;20.80;;;;;;;-1.58;79.55;102043.34;5009554;28;20038;-78
2022/03/04 06:01:46;;;;;;;38.83;21.83;;;;;;;-1.55;80.19;102050.97;4994459;28;20038;-79
2022/03/04 06:04:12;;;;;;;38.22;21.75;;;;;;;-1.70;80.35;102038.19;4994655;28;20026;-80
2022/03/04 06:06:37;;;;;;;38.88;21.92;;;;;;;-1.74;80.11;102039.88;4994781;28;20037;-80
2022/03/04 06:09:03;;;;;;;39.83;22.25;;;;;;;-1.77;80.19;102038.97;4994401;28;20043;-79
2022/03/04 06:11:28;;;;;;;41.15;21.58;;;;;;;-1.66;80.33;102057.66;4994354;28;20037;-78
2022/03/04 06:13:53;;;;;;;39.25;22.33;;;;;;;-1.64;80.32;102057.66;4994567;28;20035;-77
2022/03/04 06:16:20;;;;;;;40.75;22.70;;;;;;;-1.66;80.60;102062.72;4994099;28;20427;-77
2022/03/04 06:18:46;;;;;;;38.58;21.17;;;;;;;-1.66;80.55;102060.19;4994477;28;20035;-77
2022/03/04 06:21:11;;;;;;;39.75;22.42;;;;;;;-1.95;80.85;102009.34;4994228;28;20033;-78
2022/03/04 06:23:37;;;;;;;38.13;22.08;;;;;;;-1.69;80.76;102051.69;4994442;28;20408;-77
2022/03/04 06:26:02;;;;;;;37.92;21.98;;;;;;;-1.66;80.68;102060.19;4994255;28;20027;-76
2022/03/04 06:28:28;;;;;;;39.00;23.05;;;;;;;-2.01;80.50;101994.09;4994175;28;20066;-74
2022/03/04 06:30:54;;;;;;;38.42;22.10;;;;;;;-1.77;80.89;102039.84;5009082;28;20061;-77
2022/03/04 06:33:36;;;;;;;37.45;21.55;;;;;;;-1.73;80.99;102058.44;4994274;28;20129;-78
2022/03/04 06:36:06;;;;;;;41.33;22.65;;;;;;;-1.70;81.48;102060.97;4993899;28;20109;-77
2022/03/04 06:38:33;;;;;;;37.80;22.08;;;;;;;-1.71;81.50;102061.81;4994068;28;20080;-77
2022/03/04 06:41:00;;;;;;;37.47;21.95;;;;;;;-1.65;81.17;102069.47;4992340;28;20076;-80
2022/03/04 06:43:25;;;;;;;40.30;22.15;;;;;;;-1.60;81.22;102067.81;4993817;28;20034;-79
2022/03/04 06:45:51;;;;;;;36.92;21.70;;;;;;;-1.60;81.35;102065.28;4993783;28;20499;-76
2022/03/04 06:48:18;;;;;;;41.30;22.83;;;;;;;-1.59;81.43;102063.59;4993922;28;20064;-76
2022/03/04 06:50:44;;;;;;;36.33;22.27;;;;;;;-1.47;81.45;102073.81;4993847;28;20053;-78
2022/03/04 06:53:09;;;;;;;40.58;22.40;;;;;;;-1.43;81.65;102082.28;4993906;28;20026;-76
2022/03/04 06:55:34;;;;;;;40.50;23.20;;;;;;;-1.62;81.46;102054.28;4993735;28;20472;-76
2022/03/04 06:58:00;;;;;;;42.85;23.65;;;;;;;-1.50;81.59;102063.66;4993396;28;20042;-77
2022/03/04 07:00:26;;;;;;;41.33;23.17;;;;;;;-1.32;81.69;102090.81;4993428;28;20030;-76
2022/03/04 07:02:52;;;;;;;38.28;22.85;;;;;;;-1.35;81.56;102078.13;4993652;28;20069;-75
2022/03/04 07:05:18;;;;;;;39.53;24.05;;;;;;;-1.27;81.41;102084.09;4993662;28;20077;-81
2022/03/04 07:07:43;;;;;;;41.40;24.08;;;;;;;-1.40;81.30;102057.81;4993627;28;20023;-77
2022/03/04 07:10:09;;;;;;;40.30;23.17;;;;;;;-1.10;81.55;102101.91;4991688;28;20029;-77
2022/03/04 07:12:36;;;;;;;41.70;23.55;;;;;;;-1.20;81.64;102089.19;4993350;28;20042;-75
2022/03/04 07:15:02;;;;;;;48.35;25.45;;;;;;;-1.19;81.29;102088.34;4993687;28;20026;-74
2022/03/04 07:17:27;;;;;;;41.75;23.58;;;;;;;-0.99;81.27;102111.25;4993869;28;20041;-77
2022/03/04 07:19:53;;;;;;;41.85;23.42;;;;;;;-0.98;80.97;102110.44;4993518;28;20097;-76
2022/03/04 07:22:18;;;;;;;43.42;24.38;;;;;;;-0.88;80.91;102112.19;4993513;28;20088;-77
2022/03/04 07:24:43;;;;;;;41.28;23.98;;;;;;;-0.93;80.97;102090.16;4993381;28;20110;-76
2022/03/04 07:27:09;;;;;;;39.60;22.83;;;;;;;-0.73;80.64;102115.63;4993269;28;20531;-75
2022/03/04 07:29:34;;;;;;;45.80;24.75;;;;;;;-0.75;80.33;102092.78;4993187;28;20058;-76
2022/03/04 07:32:00;;;;;;;41.42;23.50;;;;;;;-0.73;80.09;102096.16;5007868;28;20046;-74
2022/03/04 07:34:25;;;;;;;45.53;24.02;;;;;;;-0.51;79.97;102124.16;4993245;28;20034;-74
2022/03/04 07:36:54;;;;;;;42.33;24.50;;;;;;;-0.55;79.40;102097.94;4991785;28;20046;-73
2022/03/04 07:39:19;;;;;;;39.88;24.10;;;;;;;-0.52;79.25;102095.41;4992098;28;20034;-76
2022/03/04 07:41:48;;;;;;;43.42;24.80;;;;;;;-0.30;79.11;102124.22;4993483;28;20089;-76
2022/03/04 07:44:14;;;;;;;42.20;24.98;;;;;;;-0.44;79.13;102096.28;4992953;28;20027;-75
2022/03/04 07:46:39;;;;;;;43.97;24.55;;;;;;;-0.65;79.06;102050.53;4992706;28;20061;-75
2022/03/04 07:49:04;;;;;;;41.90;23.48;;;;;;;-0.13;78.55;102120.03;5007404;28;20078;-74
2022/03/04 07:51:30;;;;;;;44.08;23.80;;;;;;;-0.03;77.92;102118.34;4993123;28;20022;-79
2022/03/04 07:53:55;;;;;;;43.78;24.17;;;;;;;0.04;78.52;102111.59;4992972;28;20030;-77
2022/03/04 07:56:21;;;;;;;41.03;23.75;;;;;;;-0.08;77.99;102092.13;4993096;28;20037;-76
2022/03/04 07:58:46;;;;;;;41.47;24.05;;;;;;;0.17;77.74;102116.69;4992963;28;20054;-77
2022/03/04 08:01:11;;;;;;;41.97;23.50;;;;;;;0.23;77.45;102124.31;4992685;28;20030;-77
2022/03/04 08:03:37;;;;;;;44.90;22.77;;;;;;;0.12;77.08;102092.13;4992958;28;20439;-78
2022/03/04 08:06:02;;;;;;;45.08;23.42;;;;;;;0.22;77.56;102096.38;4993236;28;20050;-75
2022/03/04 08:08:28;;;;;;;42.45;23.60;;;;;;;0.23;76.59;102087.91;4992891;28;20092;-76
2022/03/04 08:10:54;;;;;;;43.10;24.35;;;;;;;0.27;76.82;102087.88;4993114;28;20576;-76
2022/03/04 08:13:19;;;;;;;42.25;23.65;;;;;;;0.57;76.61;102121.75;4992637;28;20026;-75
2022/03/04 08:15:45;;;;;;;42.70;23.98;;;;;;;0.62;76.24;102120.06;4993049;28;20037;-74
2022/03/04 08:18:10;;;;;;;40.38;22.67;;;;;;;0.64;75.36;102126.00;4992795;28;20038;-75
2022/03/04 08:20:38;;;;;;;38.83;22.15;;;;;;;0.65;75.05;102112.44;4992768;28;20058;-76
2022/03/04 08:23:03;;;;;;;38.97;21.58;;;;;;;0.66;75.15;102109.03;4993451;28;20050;-76
2022/03/04 08:25:29;;;;;;;35.88;21.88;;;;;;;0.84;74.62;102131.88;4995235;28;20108;-77
2022/03/04 08:27:54;;;;;;;40.20;22.20;;;;;;;0.95;73.98;102141.19;5011266;28;20052;-76
2022/03/04 08:30:19;;;;;;;38.38;21.98;;;;;;;1.01;74.18;102141.19;5010720;28;20062;-77
2022/03/04 08:32:45;;;;;;;38.72;21.75;;;;;;;0.86;73.55;102107.31;4996374;28;20061;-77
2022/03/04 08:35:10;;;;;;;37.92;21.30;;;;;;;0.97;73.26;102119.97;4996321;28;20317;-76
2022/03/04 08:37:36;;;;;;;34.13;20.50;;;;;;;1.20;73.16;102144.53;4996476;28;20449;-77
2022/03/04 08:40:04;;;;;;;35.78;20.88;;;;;;;1.24;73.47;102147.06;4996255;28;20046;-75
2022/03/04 08:42:29;;;;;;;37.08;21.33;;;;;;;1.30;73.39;102146.19;4996022;28;20053;-77
2022/03/04 08:44:55;;;;;;;36.03;20.50;;;;;;;1.03;73.38;102098.78;5010506;28;20464;-76
2022/03/04 08:47:21;;;;;;;39.83;22.85;;;;;;;1.36;73.13;102143.59;4996206;28;20030;-76
2022/03/04 08:49:46;;;;;;;38.10;20.83;;;;;;;1.52;72.69;102149.50;4994453;28;20042;-76
2022/03/04 08:52:12;;;;;;;40.47;23.42;;;;;;;1.53;72.05;102149.47;4996011;28;20534;-75
2022/03/04 08:54:37;;;;;;;34.90;20.88;;;;;;;1.56;71.85;102148.63;4995974;28;20030;-77
2022/03/04 08:57:03;;;;;;;35.63;21.17;;;;;;;1.62;72.04;102146.91;4995603;28;20026;-76
2022/03/04 08:59:28;;;;;;;35.97;21.35;;;;;;;1.60;71.75;102124.84;4995926;28;20026;-73
2022/03/04 09:01:54;;;;;;;36.28;22.33;;;;;;;1.86;71.74;102162.91;4995764;28;20384;-75
2022/03/04 09:04:19;;;;;;;35.00;20.50;;;;;;;1.80;70.64;102138.31;4995771;28;20395;-76
2022/03/04 09:06:45;;;;;;;32.78;20.65;;;;;;;1.97;71.13;102158.63;4995804;28;20026;-76
2022/03/04 09:09:11;;;;;;;35.17;21.40;;;;;;;2.07;71.21;102164.50;4995644;28;20030;-75
2022/03/04 09:11:36;;;;;;;35.85;21.90;;;;;;;2.12;70.55;102155.94;4995562;28;20041;-75
2022/03/04 09:14:04;;;;;;;38.15;20.92;;;;;;;2.20;70.84;102161.00;4995495;28;20018;-74
2022/03/04 09:16:30;;;;;;;35.65;19.98;;;;;;;2.29;69.58;102158.38;4995475;28;20023;-76
2022/03/04 09:18:56;;;;;;;34.60;20.63;;;;;;;2.34;69.26;102149.00;4995658;28;20075;-76
2022/03/04 09:21:21;;;;;;;33.88;19.98;;;;;;;2.43;68.52;102143.81;4995527;28;20019;-78
2022/03/04 09:23:46;;;;;;;33.05;20.00;;;;;;;2.50;68.18;102153.13;4995584;28;20112;-78
2022/03/04 09:26:12;;;;;;;36.72;20.85;;;;;;;2.54;68.62;102142.03;4994632;28;20072;-73
2022/03/04 09:28:37;;;;;;;34.28;19.70;;;;;;;2.57;68.20;102136.06;4996122;28;20022;-80
2022/03/04 09:31:03;;;;;;;36.20;19.98;;;;;;;2.57;68.29;102108.88;4995262;28;20026;-76
2022/03/04 09:33:28;;;;;;;38.85;20.90;;;;;;;2.77;67.92;102139.28;4995255;28;20030;-75
2022/03/04 09:35:54;;;;;;;35.50;20.55;;;;;;;2.82;67.52;102134.97;4994602;28;20029;-75
2022/03/04 09:38:19;;;;;;;32.53;20.55;;;;;;;2.86;67.78;102126.44;4995223;28;20157;-75
2022/03/04 09:40:47;;;;;;;35.05;22.10;;;;;;;2.84;67.58;102117.09;4995241;28;20058;-81
2022/03/04 09:43:13;;;;;;;36.42;21.30;;;;;;;2.66;66.97;102074.78;4993891;28;20069;-80
2022/03/04 09:45:39;;;;;;;35.50;21.45;;;;;;;3.04;67.06;102127.94;4994765;28;20507;-76
2022/03/04 09:48:05;;;;;;;35.05;20.95;;;;;;;2.94;66.66;102095.72;4995118;28;20026;-77
2022/03/04 09:50:33;;;;;;;33.45;20.73;;;;;;;2.86;66.98;102077.97;4994743;28;20026;-79
2022/03/04 09:52:58;;;;;;;33.75;21.02;;;;;;;3.27;66.77;102130.22;4994979;28;20395;-82
2022/03/04 09:55:24;;;;;;;32.38;20.75;;;;;;;3.29;66.37;102125.09;4994885;28;20109;-79
2022/03/04 09:57:49;;;;;;;36.67;19.98;;;;;;;2.28;66.07;101945.16;4994739;28;20141;-78
2022/03/04 10:00:15;;;;;;;34.15;20.35;;;;;;;3.51;65.91;102131.63;5009034;28;20038;-76
2022/03/04 10:02:40;;;;;;;32.97;19.77;;;;;;;3.57;64.63;102140.94;4994808;28;20018;-75
2022/03/04 10:05:06;;;;;;;32.70;20.02;;;;;;;3.64;64.03;102135.72;4994570;28;20019;-75
2022/03/04 10:07:44;;;;;;;34.42;19.98;;;;;;;3.39;63.94;102083.28;4994447;28;20050;-77
2022/03/04 10:10:12;;;;;;;34.70;20.50;;;;;;;3.70;63.75;102122.84;4994546;28;20026;-77
2022/03/04 10:12:57;;;;;;;32.25;20.48;;;;;;;3.92;64.49;102132.78;4994377;28;20023;-76
2022/03/04 10:15:25;;;;;;;39.10;22.33;;;;;;;4.02;63.54;102140.28;4994417;28;20412;-76
2022/03/04 10:18:04;;;;;;;33.03;20.52;;;;;;;4.12;62.93;102142.69;4994480;28;20019;-79
2022/03/04 10:20:43;;;;;;;34.35;20.45;;;;;;;4.20;62.73;102139.16;4994313;28;20129;-75
2022/03/04 10:23:22;;;;;;;34.65;20.58;;;;;;;4.25;62.30;102139.09;4994369;28;20030;-76
2022/03/04 10:25:53;;;;;;;34.75;21.73;;;;;;;3.96;62.13;102089.28;4994262;28;20464;-82
2022/03/04 10:28:20;;;;;;;32.65;20.48;;;;;;;4.36;62.96;102146.59;4994011;28;20519;-77
2022/03/04 10:30:51;;;;;;;37.00;20.50;;;;;;;4.24;62.80;102112.69;4994262;28;20101;-76
2022/03/04 10:33:18;;;;;;;30.83;20.15;;;;;;;4.44;62.02;102134.53;4993922;28;20057;-76
2022/03/04 10:35:45;;;;;;;33.55;19.98;;;;;;;4.51;61.06;102134.38;4993669;28;20396;-76
2022/03/04 10:38:19;;;;;;;35.88;21.27;;;;;;;4.54;61.32;102131.81;4993589;28;20023;-77
2022/03/04 10:40:44;;;;;;;34.65;20.83;;;;;;;4.63;61.60;102133.38;4993868;28;20031;-85
2022/03/04 10:43:12;;;;;;;35.55;20.88;;;;;;;4.68;61.62;102129.00;5008264;28;20022;-74
2022/03/04 10:45:40;;;;;;;30.05;19.58;;;;;;;4.79;61.84;102131.34;4993472;28;20034;-75
2022/03/04 10:48:10;;;;;;;36.28;20.52;;;;;;;4.82;62.11;102134.72;4991099;28;20026;-74
2022/03/04 10:50:43;;;;;;;35.72;21.50;;;;;;;4.66;61.09;102105.16;4993479;28;20033;-80
2022/03/04 10:53:23;;;;;;;32.58;19.88;;;;;;;4.75;61.17;102117.78;4993204;28;20026;-74
2022/03/04 10:55:51;;;;;;;35.10;20.20;;;;;;;4.72;61.64;102084.59;4992020;28;20084;-85
2022/03/04 10:58:21;;;;;;;33.85;19.67;;;;;;;4.84;60.08;102088.63;4993120;28;20154;-81
2022/03/04 11:00:57;;;;;;;32.75;19.75;;;;;;;5.04;60.11;102113.84;4993176;28;20073;-79
2022/03/04 11:03:28;;;;;;;34.63;20.23;;;;;;;5.23;59.62;102122.00;4993253;28;20496;-77
2022/03/04 11:05:55;;;;;;;33.78;19.88;;;;;;;5.27;59.34;102131.31;4993418;28;20030;-79
2022/03/04 11:08:22;;;;;;;35.05;20.60;;;;;;;5.16;59.50;102095.66;4993033;28;20049;-76